sensor_id;sensor_type;location;lat;lon;timestamp;P1;durP1;ratioP1;P2;durP2;ratioP2
2996;SDS011;1508;48.744;9.110;2022-10-18T00:01:17;144.65;;;12.88;;
2996;SDS011;1508;48.744;9.110;2022-10-18T00:04:03;41.15;;;6.95;;
2996;SDS011;1508;48.744;9.110;2022-10-18T00:06:49;14.95;;;5.82;;
2996;SDS011;1508;48.744;9.110;2022-10-18T00:09:35;17.27;;;5.47;;
2996;SDS011;1508;48.744;9.110;2022-10-18T00:12:20;24.27;;;6.28;;
2996;SDS011;1508;48.744;9.110;2022-10-18T00:15:06;8.93;;;5.20;;
2996;SDS011;1508;48.744;9.110;2022-10-18T00:17:53;46.90;;;8.77;;
2996;SDS011;1508;48.744;9.110;2022-10-18T00:20:38;8.55;;;5.20;;
2996;SDS011;1508;48.744;9.110;2022-10-18T00:23:25;183.18;;;16.35;;
2996;SDS011;1508;48.744;9.110;2022-10-18T00:26:16;32.90;;;6.90;;
2996;SDS011;1508;48.744;9.110;2022-10-18T00:29:04;10.85;;;6.10;;
2996;SDS011;1508;48.744;9.110;2022-10-18T00:31:50;8.85;;;5.30;;
2996;SDS011;1508;48.744;9.110;2022-10-18T00:34:37;33.58;;;6.70;;
2996;SDS011;1508;48.744;9.110;2022-10-18T00:37:23;12.30;;;5.90;;
2996;SDS011;1508;48.744;9.110;2022-10-18T00:40:09;15.80;;;5.72;;
2996;SDS011;1508;48.744;9.110;2022-10-18T00:42:55;7.50;;;4.80;;
2996;SDS011;1508;48.744;9.110;2022-10-18T00:45:41;8.18;;;4.65;;
2996;SDS011;1508;48.744;9.110;2022-10-18T00:48:27;7.82;;;5.20;;
2996;SDS011;1508;48.744;9.110;2022-10-18T00:51:13;7.40;;;4.75;;
2996;SDS011;1508;48.744;9.110;2022-10-18T00:54:01;177.52;;;16.38;;
2996;SDS011;1508;48.744;9.110;2022-10-18T00:56:47;53.33;;;8.98;;
2996;SDS011;1508;48.744;9.110;2022-10-18T00:59:33;6.30;;;4.30;;
2996;SDS011;1508;48.744;9.110;2022-10-18T01:02:20;31.90;;;6.05;;
2996;SDS011;1508;48.744;9.110;2022-10-18T01:05:06;8.43;;;4.28;;
2996;SDS011;1508;48.744;9.110;2022-10-18T01:08:04;72.78;;;6.95;;
2996;SDS011;1508;48.744;9.110;2022-10-18T01:14:44;6.00;;;4.00;;
2996;SDS011;1508;48.744;9.110;2022-10-18T01:20:54;8.17;;;3.90;;
2996;SDS011;1508;48.744;9.110;2022-10-18T01:24:10;5.00;;;3.50;;
2996;SDS011;1508;48.744;9.110;2022-10-18T01:36:20;4.40;;;3.45;;
2996;SDS011;1508;48.744;9.110;2022-10-18T01:39:19;6.00;;;3.60;;
2996;SDS011;1508;48.744;9.110;2022-10-18T01:42:08;5.73;;;3.30;;
2996;SDS011;1508;48.744;9.110;2022-10-18T01:44:57;8.82;;;3.47;;
2996;SDS011;1508;48.744;9.110;2022-10-18T01:47:47;7.88;;;3.38;;
2996;SDS011;1508;48.744;9.110;2022-10-18T01:50:34;5.40;;;3.40;;
2996;SDS011;1508;48.744;9.110;2022-10-18T01:53:21;9.25;;;3.58;;
2996;SDS011;1508;48.744;9.110;2022-10-18T01:59:19;8.13;;;3.60;;
2996;SDS011;1508;48.744;9.110;2022-10-18T02:02:30;5.57;;;3.60;;
2996;SDS011;1508;48.744;9.110;2022-10-18T02:05:37;8.45;;;3.63;;
2996;SDS011;1508;48.744;9.110;2022-10-18T02:08:46;6.03;;;3.58;;
2996;SDS011;1508;48.744;9.110;2022-10-18T02:11:42;6.30;;;3.80;;
2996;SDS011;1508;48.744;9.110;2022-10-18T02:14:29;7.78;;;3.60;;
2996;SDS011;1508;48.744;9.110;2022-10-18T02:17:16;7.20;;;3.28;;
2996;SDS011;1508;48.744;9.110;2022-10-18T02:20:05;5.72;;;3.05;;
2996;SDS011;1508;48.744;9.110;2022-10-18T02:22:54;5.90;;;3.50;;
2996;SDS011;1508;48.744;9.110;2022-10-18T02:25:41;6.40;;;3.65;;
2996;SDS011;1508;48.744;9.110;2022-10-18T02:28:27;5.43;;;3.00;;
2996;SDS011;1508;48.744;9.110;2022-10-18T02:34:28;9.18;;;3.58;;
2996;SDS011;1508;48.744;9.110;2022-10-18T02:37:18;6.45;;;3.60;;
2996;SDS011;1508;48.744;9.110;2022-10-18T02:40:05;7.50;;;3.40;;
2996;SDS011;1508;48.744;9.110;2022-10-18T02:42:56;5.82;;;3.20;;
2996;SDS011;1508;48.744;9.110;2022-10-18T02:45:43;5.05;;;3.20;;
2996;SDS011;1508;48.744;9.110;2022-10-18T02:48:29;7.45;;;4.10;;
2996;SDS011;1508;48.744;9.110;2022-10-18T02:51:15;6.47;;;3.72;;
2996;SDS011;1508;48.744;9.110;2022-10-18T02:54:01;6.80;;;3.35;;
2996;SDS011;1508;48.744;9.110;2022-10-18T02:56:47;6.75;;;3.25;;
2996;SDS011;1508;48.744;9.110;2022-10-18T02:59:32;8.20;;;3.50;;
2996;SDS011;1508;48.744;9.110;2022-10-18T03:02:18;5.80;;;2.90;;
2996;SDS011;1508;48.744;9.110;2022-10-18T03:05:04;5.60;;;3.47;;
2996;SDS011;1508;48.744;9.110;2022-10-18T03:07:50;6.90;;;3.30;;
2996;SDS011;1508;48.744;9.110;2022-10-18T03:10:36;6.18;;;3.50;;
2996;SDS011;1508;48.744;9.110;2022-10-18T03:13:22;8.85;;;3.65;;
2996;SDS011;1508;48.744;9.110;2022-10-18T03:16:07;9.90;;;3.50;;
2996;SDS011;1508;48.744;9.110;2022-10-18T03:18:53;11.75;;;3.70;;
2996;SDS011;1508;48.744;9.110;2022-10-18T03:21:39;6.97;;;3.75;;
2996;SDS011;1508;48.744;9.110;2022-10-18T03:24:25;8.15;;;3.90;;
2996;SDS011;1508;48.744;9.110;2022-10-18T03:27:11;4.72;;;3.25;;
2996;SDS011;1508;48.744;9.110;2022-10-18T03:29:57;6.25;;;3.55;;
2996;SDS011;1508;48.744;9.110;2022-10-18T03:32:42;7.40;;;3.30;;
2996;SDS011;1508;48.744;9.110;2022-10-18T03:35:28;4.50;;;2.90;;
2996;SDS011;1508;48.744;9.110;2022-10-18T03:38:14;7.72;;;3.65;;
2996;SDS011;1508;48.744;9.110;2022-10-18T03:41:00;5.70;;;3.38;;
2996;SDS011;1508;48.744;9.110;2022-10-18T03:43:46;6.05;;;3.20;;
2996;SDS011;1508;48.744;9.110;2022-10-18T03:46:32;4.93;;;3.00;;
2996;SDS011;1508;48.744;9.110;2022-10-18T03:49:18;8.20;;;3.50;;
2996;SDS011;1508;48.744;9.110;2022-10-18T03:52:04;8.20;;;3.25;;
2996;SDS011;1508;48.744;9.110;2022-10-18T03:54:50;5.40;;;3.42;;
2996;SDS011;1508;48.744;9.110;2022-10-18T03:57:35;6.90;;;3.08;;
2996;SDS011;1508;48.744;9.110;2022-10-18T04:03:35;5.43;;;3.00;;
2996;SDS011;1508;48.744;9.110;2022-10-18T04:06:21;5.38;;;3.28;;
2996;SDS011;1508;48.744;9.110;2022-10-18T04:09:07;5.80;;;3.58;;
2996;SDS011;1508;48.744;9.110;2022-10-18T04:11:53;4.50;;;3.38;;
2996;SDS011;1508;48.744;9.110;2022-10-18T04:14:39;20.15;;;4.60;;
2996;SDS011;1508;48.744;9.110;2022-10-18T04:17:25;16.65;;;3.75;;
2996;SDS011;1508;48.744;9.110;2022-10-18T04:20:11;7.33;;;4.03;;
2996;SDS011;1508;48.744;9.110;2022-10-18T04:22:57;6.10;;;4.10;;
2996;SDS011;1508;48.744;9.110;2022-10-18T04:25:43;5.85;;;3.47;;
2996;SDS011;1508;48.744;9.110;2022-10-18T04:28:28;7.70;;;4.00;;
2996;SDS011;1508;48.744;9.110;2022-10-18T04:31:14;5.40;;;3.40;;
2996;SDS011;1508;48.744;9.110;2022-10-18T04:34:00;6.53;;;3.67;;
2996;SDS011;1508;48.744;9.110;2022-10-18T04:36:46;25.85;;;3.85;;
2996;SDS011;1508;48.744;9.110;2022-10-18T04:39:32;6.18;;;3.70;;
2996;SDS011;1508;48.744;9.110;2022-10-18T04:42:18;6.90;;;3.40;;
2996;SDS011;1508;48.744;9.110;2022-10-18T04:45:04;6.57;;;3.70;;
2996;SDS011;1508;48.744;9.110;2022-10-18T04:47:50;5.10;;;3.20;;
2996;SDS011;1508;48.744;9.110;2022-10-18T04:50:36;4.97;;;3.13;;
2996;SDS011;1508;48.744;9.110;2022-10-18T04:53:22;6.18;;;3.58;;
2996;SDS011;1508;48.744;9.110;2022-10-18T04:56:07;5.68;;;3.70;;
2996;SDS011;1508;48.744;9.110;2022-10-18T04:58:53;7.68;;;4.10;;
2996;SDS011;1508;48.744;9.110;2022-10-18T05:01:39;9.30;;;3.90;;
2996;SDS011;1508;48.744;9.110;2022-10-18T05:04:25;8.27;;;3.90;;
2996;SDS011;1508;48.744;9.110;2022-10-18T05:07:11;5.70;;;4.25;;
2996;SDS011;1508;48.744;9.110;2022-10-18T05:09:57;6.93;;;3.20;;
2996;SDS011;1508;48.744;9.110;2022-10-18T05:12:43;7.87;;;4.00;;
2996;SDS011;1508;48.744;9.110;2022-10-18T05:15:32;22.38;;;4.40;;
2996;SDS011;1508;48.744;9.110;2022-10-18T05:18:18;7.60;;;3.92;;
2996;SDS011;1508;48.744;9.110;2022-10-18T05:21:03;7.47;;;3.88;;
2996;SDS011;1508;48.744;9.110;2022-10-18T05:23:49;10.23;;;4.03;;
2996;SDS011;1508;48.744;9.110;2022-10-18T05:26:38;4.45;;;3.10;;
2996;SDS011;1508;48.744;9.110;2022-10-18T05:29:24;8.35;;;4.28;;
2996;SDS011;1508;48.744;9.110;2022-10-18T05:32:10;6.05;;;3.88;;
2996;SDS011;1508;48.744;9.110;2022-10-18T05:34:56;10.93;;;4.40;;
2996;SDS011;1508;48.744;9.110;2022-10-18T05:37:42;8.80;;;3.70;;
2996;SDS011;1508;48.744;9.110;2022-10-18T05:40:28;6.78;;;4.22;;
2996;SDS011;1508;48.744;9.110;2022-10-18T05:43:13;5.23;;;3.80;;
2996;SDS011;1508;48.744;9.110;2022-10-18T05:45:59;7.90;;;4.83;;
2996;SDS011;1508;48.744;9.110;2022-10-18T05:48:48;7.05;;;4.10;;
2996;SDS011;1508;48.744;9.110;2022-10-18T05:51:35;6.40;;;3.80;;
2996;SDS011;1508;48.744;9.110;2022-10-18T05:54:20;8.50;;;4.00;;
2996;SDS011;1508;48.744;9.110;2022-10-18T05:57:06;8.18;;;4.10;;
2996;SDS011;1508;48.744;9.110;2022-10-18T05:59:52;6.90;;;3.97;;
2996;SDS011;1508;48.744;9.110;2022-10-18T06:02:38;8.57;;;3.95;;
2996;SDS011;1508;48.744;9.110;2022-10-18T06:05:24;7.00;;;3.75;;
2996;SDS011;1508;48.744;9.110;2022-10-18T06:08:10;6.15;;;4.05;;
2996;SDS011;1508;48.744;9.110;2022-10-18T06:10:55;7.25;;;3.72;;
2996;SDS011;1508;48.744;9.110;2022-10-18T06:13:42;7.65;;;4.00;;
2996;SDS011;1508;48.744;9.110;2022-10-18T06:16:29;7.30;;;3.70;;
2996;SDS011;1508;48.744;9.110;2022-10-18T06:19:15;5.30;;;3.70;;
2996;SDS011;1508;48.744;9.110;2022-10-18T06:22:01;8.05;;;4.13;;
2996;SDS011;1508;48.744;9.110;2022-10-18T06:24:47;7.22;;;4.03;;
2996;SDS011;1508;48.744;9.110;2022-10-18T06:27:33;6.18;;;3.72;;
2996;SDS011;1508;48.744;9.110;2022-10-18T06:30:19;7.23;;;3.80;;
2996;SDS011;1508;48.744;9.110;2022-10-18T06:33:05;10.07;;;3.90;;
2996;SDS011;1508;48.744;9.110;2022-10-18T06:35:55;6.60;;;3.50;;
2996;SDS011;1508;48.744;9.110;2022-10-18T06:38:44;7.00;;;4.30;;
2996;SDS011;1508;48.744;9.110;2022-10-18T06:41:29;7.65;;;4.15;;
2996;SDS011;1508;48.744;9.110;2022-10-18T06:44:15;7.45;;;3.40;;
2996;SDS011;1508;48.744;9.110;2022-10-18T06:47:01;9.40;;;4.15;;
2996;SDS011;1508;48.744;9.110;2022-10-18T06:49:47;13.73;;;4.10;;
2996;SDS011;1508;48.744;9.110;2022-10-18T06:52:33;5.60;;;3.53;;
2996;SDS011;1508;48.744;9.110;2022-10-18T06:55:18;7.65;;;4.13;;
2996;SDS011;1508;48.744;9.110;2022-10-18T06:58:04;6.95;;;3.85;;
2996;SDS011;1508;48.744;9.110;2022-10-18T07:00:50;6.82;;;3.80;;
2996;SDS011;1508;48.744;9.110;2022-10-18T07:03:36;8.05;;;3.90;;
2996;SDS011;1508;48.744;9.110;2022-10-18T07:06:22;6.55;;;3.70;;
2996;SDS011;1508;48.744;9.110;2022-10-18T07:09:08;5.35;;;3.72;;
2996;SDS011;1508;48.744;9.110;2022-10-18T07:11:54;5.78;;;3.60;;
2996;SDS011;1508;48.744;9.110;2022-10-18T07:14:40;5.40;;;3.60;;
2996;SDS011;1508;48.744;9.110;2022-10-18T07:17:26;5.93;;;3.67;;
2996;SDS011;1508;48.744;9.110;2022-10-18T07:20:12;8.65;;;3.72;;
2996;SDS011;1508;48.744;9.110;2022-10-18T07:22:57;9.35;;;4.00;;
2996;SDS011;1508;48.744;9.110;2022-10-18T07:25:43;8.23;;;3.58;;
2996;SDS011;1508;48.744;9.110;2022-10-18T07:28:29;6.97;;;4.00;;
2996;SDS011;1508;48.744;9.110;2022-10-18T07:31:15;5.80;;;3.90;;
2996;SDS011;1508;48.744;9.110;2022-10-18T07:34:04;9.45;;;3.80;;
2996;SDS011;1508;48.744;9.110;2022-10-18T07:36:51;5.00;;;3.50;;
2996;SDS011;1508;48.744;9.110;2022-10-18T07:39:37;6.40;;;3.80;;
2996;SDS011;1508;48.744;9.110;2022-10-18T07:42:23;7.70;;;3.60;;
2996;SDS011;1508;48.744;9.110;2022-10-18T07:45:09;5.10;;;3.60;;
2996;SDS011;1508;48.744;9.110;2022-10-18T07:47:55;7.43;;;3.72;;
2996;SDS011;1508;48.744;9.110;2022-10-18T07:50:41;7.60;;;3.80;;
2996;SDS011;1508;48.744;9.110;2022-10-18T07:53:27;6.78;;;3.75;;
2996;SDS011;1508;48.744;9.110;2022-10-18T07:56:15;6.57;;;4.20;;
2996;SDS011;1508;48.744;9.110;2022-10-18T07:59:02;7.10;;;3.83;;
2996;SDS011;1508;48.744;9.110;2022-10-18T08:01:48;6.07;;;4.10;;
2996;SDS011;1508;48.744;9.110;2022-10-18T08:04:34;7.80;;;3.40;;
2996;SDS011;1508;48.744;9.110;2022-10-18T08:07:20;6.25;;;3.70;;
2996;SDS011;1508;48.744;9.110;2022-10-18T08:10:06;6.30;;;3.80;;
2996;SDS011;1508;48.744;9.110;2022-10-18T08:12:52;10.15;;;4.10;;
2996;SDS011;1508;48.744;9.110;2022-10-18T08:15:38;6.60;;;3.70;;
2996;SDS011;1508;48.744;9.110;2022-10-18T08:18:24;6.93;;;3.50;;
2996;SDS011;1508;48.744;9.110;2022-10-18T08:21:11;6.53;;;3.60;;
2996;SDS011;1508;48.744;9.110;2022-10-18T08:23:57;5.10;;;3.70;;
2996;SDS011;1508;48.744;9.110;2022-10-18T08:26:43;8.48;;;3.90;;
2996;SDS011;1508;48.744;9.110;2022-10-18T08:29:29;7.57;;;3.80;;
2996;SDS011;1508;48.744;9.110;2022-10-18T08:32:15;6.50;;;3.78;;
2996;SDS011;1508;48.744;9.110;2022-10-18T08:35:01;7.70;;;4.00;;
2996;SDS011;1508;48.744;9.110;2022-10-18T08:37:47;6.63;;;3.80;;
2996;SDS011;1508;48.744;9.110;2022-10-18T08:40:33;6.30;;;3.83;;
2996;SDS011;1508;48.744;9.110;2022-10-18T08:46:27;7.35;;;3.70;;
2996;SDS011;1508;48.744;9.110;2022-10-18T08:49:28;6.95;;;3.97;;
2996;SDS011;1508;48.744;9.110;2022-10-18T08:58:25;8.27;;;3.80;;
2996;SDS011;1508;48.744;9.110;2022-10-18T09:20:23;6.18;;;3.38;;
2996;SDS011;1508;48.744;9.110;2022-10-18T09:26:09;5.60;;;3.30;;
2996;SDS011;1508;48.744;9.110;2022-10-18T09:35:21;6.50;;;2.70;;
2996;SDS011;1508;48.744;9.110;2022-10-18T09:38:15;6.97;;;3.03;;
2996;SDS011;1508;48.744;9.110;2022-10-18T09:44:38;6.68;;;3.13;;
2996;SDS011;1508;48.744;9.110;2022-10-18T09:47:31;7.07;;;2.83;;
2996;SDS011;1508;48.744;9.110;2022-10-18T09:50:29;7.78;;;3.40;;
2996;SDS011;1508;48.744;9.110;2022-10-18T09:56:36;6.18;;;2.75;;
2996;SDS011;1508;48.744;9.110;2022-10-18T09:59:35;4.15;;;3.00;;
2996;SDS011;1508;48.744;9.110;2022-10-18T10:02:25;5.45;;;3.20;;
2996;SDS011;1508;48.744;9.110;2022-10-18T10:05:14;6.43;;;3.47;;
2996;SDS011;1508;48.744;9.110;2022-10-18T10:08:00;7.73;;;3.20;;
2996;SDS011;1508;48.744;9.110;2022-10-18T10:10:46;7.18;;;3.08;;
2996;SDS011;1508;48.744;9.110;2022-10-18T10:13:31;9.80;;;3.67;;
2996;SDS011;1508;48.744;9.110;2022-10-18T10:16:17;9.57;;;3.60;;
2996;SDS011;1508;48.744;9.110;2022-10-18T10:19:03;6.45;;;3.33;;
2996;SDS011;1508;48.744;9.110;2022-10-18T10:21:50;6.88;;;3.17;;
2996;SDS011;1508;48.744;9.110;2022-10-18T10:24:47;5.30;;;3.20;;
2996;SDS011;1508;48.744;9.110;2022-10-18T10:27:41;8.02;;;3.53;;
2996;SDS011;1508;48.744;9.110;2022-10-18T10:30:30;6.78;;;2.92;;
2996;SDS011;1508;48.744;9.110;2022-10-18T10:33:31;9.70;;;3.47;;
2996;SDS011;1508;48.744;9.110;2022-10-18T10:36:19;8.27;;;3.45;;
2996;SDS011;1508;48.744;9.110;2022-10-18T10:39:12;7.82;;;3.28;;
2996;SDS011;1508;48.744;9.110;2022-10-18T10:42:00;7.40;;;3.42;;
2996;SDS011;1508;48.744;9.110;2022-10-18T10:44:50;7.35;;;3.17;;
2996;SDS011;1508;48.744;9.110;2022-10-18T10:47:39;8.20;;;3.63;;
2996;SDS011;1508;48.744;9.110;2022-10-18T10:50:26;9.57;;;3.25;;
2996;SDS011;1508;48.744;9.110;2022-10-18T10:59:14;7.15;;;3.53;;
2996;SDS011;1508;48.744;9.110;2022-10-18T11:02:21;5.50;;;3.08;;
2996;SDS011;1508;48.744;9.110;2022-10-18T11:05:24;7.53;;;3.40;;
2996;SDS011;1508;48.744;9.110;2022-10-18T11:08:13;6.50;;;3.42;;
2996;SDS011;1508;48.744;9.110;2022-10-18T11:11:16;7.95;;;3.15;;
2996;SDS011;1508;48.744;9.110;2022-10-18T11:14:17;5.70;;;3.15;;
2996;SDS011;1508;48.744;9.110;2022-10-18T11:17:20;6.90;;;3.40;;
2996;SDS011;1508;48.744;9.110;2022-10-18T11:20:23;7.35;;;3.35;;
2996;SDS011;1508;48.744;9.110;2022-10-18T11:23:11;4.90;;;3.08;;
2996;SDS011;1508;48.744;9.110;2022-10-18T11:32:10;6.68;;;2.60;;
2996;SDS011;1508;48.744;9.110;2022-10-18T11:38:15;4.25;;;2.60;;
2996;SDS011;1508;48.744;9.110;2022-10-18T11:44:30;6.97;;;3.70;;
2996;SDS011;1508;48.744;9.110;2022-10-18T11:47:24;9.55;;;4.10;;
2996;SDS011;1508;48.744;9.110;2022-10-18T11:50:20;6.50;;;3.90;;
2996;SDS011;1508;48.744;9.110;2022-10-18T11:56:56;6.45;;;4.00;;
2996;SDS011;1508;48.744;9.110;2022-10-18T12:03:06;10.50;;;3.85;;
2996;SDS011;1508;48.744;9.110;2022-10-18T12:06:04;6.25;;;3.58;;
2996;SDS011;1508;48.744;9.110;2022-10-18T12:08:57;9.98;;;3.97;;
2996;SDS011;1508;48.744;9.110;2022-10-18T12:11:48;9.50;;;3.67;;
2996;SDS011;1508;48.744;9.110;2022-10-18T12:14:39;6.70;;;4.18;;
2996;SDS011;1508;48.744;9.110;2022-10-18T12:17:29;8.90;;;3.28;;
2996;SDS011;1508;48.744;9.110;2022-10-18T12:20:26;6.97;;;2.17;;
2996;SDS011;1508;48.744;9.110;2022-10-18T12:26:14;6.22;;;1.80;;
2996;SDS011;1508;48.744;9.110;2022-10-18T12:29:05;4.80;;;1.77;;
2996;SDS011;1508;48.744;9.110;2022-10-18T12:32:12;4.60;;;1.70;;
2996;SDS011;1508;48.744;9.110;2022-10-18T12:35:01;2.90;;;1.60;;
2996;SDS011;1508;48.744;9.110;2022-10-18T12:41:04;4.20;;;1.60;;
2996;SDS011;1508;48.744;9.110;2022-10-18T12:43:51;3.70;;;1.70;;
2996;SDS011;1508;48.744;9.110;2022-10-18T12:46:51;4.85;;;1.70;;
2996;SDS011;1508;48.744;9.110;2022-10-18T12:49:41;3.63;;;1.80;;
2996;SDS011;1508;48.744;9.110;2022-10-18T12:52:28;3.80;;;1.90;;
2996;SDS011;1508;48.744;9.110;2022-10-18T12:58:01;3.35;;;2.25;;
2996;SDS011;1508;48.744;9.110;2022-10-18T13:00:50;4.70;;;2.30;;
2996;SDS011;1508;48.744;9.110;2022-10-18T13:03:51;5.40;;;2.20;;
2996;SDS011;1508;48.744;9.110;2022-10-18T13:23:22;3.92;;;2.10;;
2996;SDS011;1508;48.744;9.110;2022-10-18T13:29:16;4.07;;;1.90;;
2996;SDS011;1508;48.744;9.110;2022-10-18T13:38:36;6.13;;;1.90;;
2996;SDS011;1508;48.744;9.110;2022-10-18T13:44:28;4.10;;;2.00;;
2996;SDS011;1508;48.744;9.110;2022-10-18T13:47:15;6.40;;;2.25;;
2996;SDS011;1508;48.744;9.110;2022-10-18T13:50:21;3.60;;;1.70;;
2996;SDS011;1508;48.744;9.110;2022-10-18T13:53:42;3.40;;;1.50;;
2996;SDS011;1508;48.744;9.110;2022-10-18T13:56:32;5.05;;;1.60;;
2996;SDS011;1508;48.744;9.110;2022-10-18T14:11:27;2.90;;;1.70;;
2996;SDS011;1508;48.744;9.110;2022-10-18T14:17:33;3.33;;;1.77;;
2996;SDS011;1508;48.744;9.110;2022-10-18T14:20:32;3.80;;;1.92;;
2996;SDS011;1508;48.744;9.110;2022-10-18T14:23:22;5.40;;;1.73;;
2996;SDS011;1508;48.744;9.110;2022-10-18T14:26:17;2.70;;;1.80;;
2996;SDS011;1508;48.744;9.110;2022-10-18T14:29:05;4.47;;;1.90;;
2996;SDS011;1508;48.744;9.110;2022-10-18T14:31:59;4.28;;;1.60;;
2996;SDS011;1508;48.744;9.110;2022-10-18T14:34:45;3.95;;;1.73;;
2996;SDS011;1508;48.744;9.110;2022-10-18T14:37:34;3.83;;;1.70;;
2996;SDS011;1508;48.744;9.110;2022-10-18T14:40:28;5.40;;;1.70;;
2996;SDS011;1508;48.744;9.110;2022-10-18T14:43:18;3.50;;;2.20;;
2996;SDS011;1508;48.744;9.110;2022-10-18T14:46:08;6.70;;;2.30;;
2996;SDS011;1508;48.744;9.110;2022-10-18T14:49:04;3.10;;;2.20;;
2996;SDS011;1508;48.744;9.110;2022-10-18T14:51:51;6.63;;;1.90;;
2996;SDS011;1508;48.744;9.110;2022-10-18T14:54:40;3.13;;;1.80;;
2996;SDS011;1508;48.744;9.110;2022-10-18T14:57:27;7.22;;;2.17;;
2996;SDS011;1508;48.744;9.110;2022-10-18T15:00:20;4.40;;;1.90;;
2996;SDS011;1508;48.744;9.110;2022-10-18T15:03:12;6.00;;;2.70;;
2996;SDS011;1508;48.744;9.110;2022-10-18T15:06:01;4.93;;;2.80;;
2996;SDS011;1508;48.744;9.110;2022-10-18T15:08:50;5.78;;;2.55;;
2996;SDS011;1508;48.744;9.110;2022-10-18T15:11:40;7.63;;;3.00;;
2996;SDS011;1508;48.744;9.110;2022-10-18T15:14:29;6.00;;;3.20;;
2996;SDS011;1508;48.744;9.110;2022-10-18T15:17:25;5.25;;;3.17;;
2996;SDS011;1508;48.744;9.110;2022-10-18T15:20:21;4.10;;;2.90;;
2996;SDS011;1508;48.744;9.110;2022-10-18T15:23:26;7.72;;;3.10;;
2996;SDS011;1508;48.744;9.110;2022-10-18T15:26:13;5.45;;;2.90;;
2996;SDS011;1508;48.744;9.110;2022-10-18T15:29:04;11.70;;;3.20;;
2996;SDS011;1508;48.744;9.110;2022-10-18T15:31:50;6.20;;;3.30;;
2996;SDS011;1508;48.744;9.110;2022-10-18T15:34:36;5.95;;;3.50;;
2996;SDS011;1508;48.744;9.110;2022-10-18T15:37:29;6.53;;;3.38;;
2996;SDS011;1508;48.744;9.110;2022-10-18T15:46:25;6.20;;;3.90;;
2996;SDS011;1508;48.744;9.110;2022-10-18T16:01:51;6.68;;;3.67;;
2996;SDS011;1508;48.744;9.110;2022-10-18T16:04:19;4.93;;;3.67;;
2996;SDS011;1508;48.744;9.110;2022-10-18T16:07:12;7.25;;;3.80;;
2996;SDS011;1508;48.744;9.110;2022-10-18T16:09:58;6.05;;;4.30;;
2996;SDS011;1508;48.744;9.110;2022-10-18T16:12:44;8.00;;;4.38;;
2996;SDS011;1508;48.744;9.110;2022-10-18T16:15:30;7.78;;;4.70;;
2996;SDS011;1508;48.744;9.110;2022-10-18T16:18:17;5.22;;;4.10;;
2996;SDS011;1508;48.744;9.110;2022-10-18T16:21:04;5.05;;;4.05;;
2996;SDS011;1508;48.744;9.110;2022-10-18T16:23:50;6.47;;;4.83;;
2996;SDS011;1508;48.744;9.110;2022-10-18T16:26:36;8.18;;;4.10;;
2996;SDS011;1508;48.744;9.110;2022-10-18T16:29:22;6.88;;;4.60;;
2996;SDS011;1508;48.744;9.110;2022-10-18T16:32:08;7.88;;;4.60;;
2996;SDS011;1508;48.744;9.110;2022-10-18T16:34:54;7.80;;;4.45;;
2996;SDS011;1508;48.744;9.110;2022-10-18T16:37:40;9.13;;;5.00;;
2996;SDS011;1508;48.744;9.110;2022-10-18T16:40:26;9.65;;;4.80;;
2996;SDS011;1508;48.744;9.110;2022-10-18T16:43:12;7.60;;;4.60;;
2996;SDS011;1508;48.744;9.110;2022-10-18T16:45:58;6.10;;;4.53;;
2996;SDS011;1508;48.744;9.110;2022-10-18T16:48:44;6.43;;;4.75;;
2996;SDS011;1508;48.744;9.110;2022-10-18T16:51:30;8.70;;;5.23;;
2996;SDS011;1508;48.744;9.110;2022-10-18T16:54:16;23.33;;;6.20;;
2996;SDS011;1508;48.744;9.110;2022-10-18T16:57:02;21.15;;;6.00;;
2996;SDS011;1508;48.744;9.110;2022-10-18T16:59:48;9.40;;;5.75;;
2996;SDS011;1508;48.744;9.110;2022-10-18T17:02:34;9.00;;;5.60;;
2996;SDS011;1508;48.744;9.110;2022-10-18T17:05:20;7.50;;;5.20;;
2996;SDS011;1508;48.744;9.110;2022-10-18T17:08:06;8.32;;;5.10;;
2996;SDS011;1508;48.744;9.110;2022-10-18T17:10:54;6.85;;;5.18;;
2996;SDS011;1508;48.744;9.110;2022-10-18T17:13:41;9.98;;;5.53;;
2996;SDS011;1508;48.744;9.110;2022-10-18T17:16:29;7.77;;;5.90;;
2996;SDS011;1508;48.744;9.110;2022-10-18T17:19:19;9.38;;;5.78;;
2996;SDS011;1508;48.744;9.110;2022-10-18T17:22:05;8.10;;;5.30;;
2996;SDS011;1508;48.744;9.110;2022-10-18T17:24:51;9.02;;;5.72;;
2996;SDS011;1508;48.744;9.110;2022-10-18T17:27:36;9.70;;;5.72;;
2996;SDS011;1508;48.744;9.110;2022-10-18T17:30:22;32.88;;;6.47;;
2996;SDS011;1508;48.744;9.110;2022-10-18T17:33:08;14.45;;;6.57;;
2996;SDS011;1508;48.744;9.110;2022-10-18T17:35:55;10.52;;;5.80;;
2996;SDS011;1508;48.744;9.110;2022-10-18T17:38:41;15.60;;;5.85;;
2996;SDS011;1508;48.744;9.110;2022-10-18T17:41:27;8.20;;;6.60;;
2996;SDS011;1508;48.744;9.110;2022-10-18T17:44:13;9.43;;;6.25;;
2996;SDS011;1508;48.744;9.110;2022-10-18T17:46:58;8.32;;;5.90;;
2996;SDS011;1508;48.744;9.110;2022-10-18T17:49:44;7.95;;;6.63;;
2996;SDS011;1508;48.744;9.110;2022-10-18T17:52:30;11.10;;;6.93;;
2996;SDS011;1508;48.744;9.110;2022-10-18T17:55:16;8.30;;;6.30;;
2996;SDS011;1508;48.744;9.110;2022-10-18T17:58:02;7.75;;;6.57;;
2996;SDS011;1508;48.744;9.110;2022-10-18T18:00:48;8.43;;;6.50;;
2996;SDS011;1508;48.744;9.110;2022-10-18T18:03:33;10.27;;;7.07;;
2996;SDS011;1508;48.744;9.110;2022-10-18T18:06:20;7.97;;;7.03;;
2996;SDS011;1508;48.744;9.110;2022-10-18T18:09:09;7.60;;;6.40;;
2996;SDS011;1508;48.744;9.110;2022-10-18T18:11:57;8.88;;;6.32;;
2996;SDS011;1508;48.744;9.110;2022-10-18T18:14:42;9.68;;;7.47;;
2996;SDS011;1508;48.744;9.110;2022-10-18T18:17:28;10.90;;;7.50;;
2996;SDS011;1508;48.744;9.110;2022-10-18T18:20:14;11.02;;;7.70;;
2996;SDS011;1508;48.744;9.110;2022-10-18T18:23:00;10.95;;;7.90;;
2996;SDS011;1508;48.744;9.110;2022-10-18T18:25:53;11.50;;;8.10;;
2996;SDS011;1508;48.744;9.110;2022-10-18T18:28:40;10.13;;;7.95;;
2996;SDS011;1508;48.744;9.110;2022-10-18T18:31:26;13.63;;;7.95;;
2996;SDS011;1508;48.744;9.110;2022-10-18T18:34:12;11.10;;;8.60;;
2996;SDS011;1508;48.744;9.110;2022-10-18T18:36:59;12.10;;;8.50;;
2996;SDS011;1508;48.744;9.110;2022-10-18T18:39:44;9.27;;;8.27;;
2996;SDS011;1508;48.744;9.110;2022-10-18T18:42:30;11.23;;;9.00;;
2996;SDS011;1508;48.744;9.110;2022-10-18T18:45:16;29.35;;;10.13;;
2996;SDS011;1508;48.744;9.110;2022-10-18T18:48:02;12.90;;;9.05;;
2996;SDS011;1508;48.744;9.110;2022-10-18T18:50:48;10.95;;;9.18;;
2996;SDS011;1508;48.744;9.110;2022-10-18T18:53:34;13.68;;;8.80;;
2996;SDS011;1508;48.744;9.110;2022-10-18T18:56:21;12.98;;;9.10;;
2996;SDS011;1508;48.744;9.110;2022-10-18T18:59:09;13.60;;;9.27;;
2996;SDS011;1508;48.744;9.110;2022-10-18T19:01:57;13.25;;;9.20;;
2996;SDS011;1508;48.744;9.110;2022-10-18T19:04:42;12.05;;;9.60;;
2996;SDS011;1508;48.744;9.110;2022-10-18T19:07:28;9.88;;;8.40;;
2996;SDS011;1508;48.744;9.110;2022-10-18T19:10:14;11.30;;;9.50;;
2996;SDS011;1508;48.744;9.110;2022-10-18T19:13:00;14.20;;;9.63;;
2996;SDS011;1508;48.744;9.110;2022-10-18T19:15:46;13.90;;;9.10;;
2996;SDS011;1508;48.744;9.110;2022-10-18T19:18:31;11.52;;;8.70;;
2996;SDS011;1508;48.744;9.110;2022-10-18T19:21:18;15.20;;;10.02;;
2996;SDS011;1508;48.744;9.110;2022-10-18T19:24:04;14.48;;;9.98;;
2996;SDS011;1508;48.744;9.110;2022-10-18T19:26:51;15.60;;;10.00;;
2996;SDS011;1508;48.744;9.110;2022-10-18T19:29:38;15.10;;;10.15;;
2996;SDS011;1508;48.744;9.110;2022-10-18T19:32:24;12.80;;;10.02;;
2996;SDS011;1508;48.744;9.110;2022-10-18T19:35:10;13.00;;;10.10;;
2996;SDS011;1508;48.744;9.110;2022-10-18T19:37:56;12.50;;;9.48;;
2996;SDS011;1508;48.744;9.110;2022-10-18T19:40:42;12.20;;;8.70;;
2996;SDS011;1508;48.744;9.110;2022-10-18T19:43:28;12.32;;;9.13;;
2996;SDS011;1508;48.744;9.110;2022-10-18T19:46:13;12.52;;;9.30;;
2996;SDS011;1508;48.744;9.110;2022-10-18T19:48:59;14.13;;;10.05;;
2996;SDS011;1508;48.744;9.110;2022-10-18T19:51:45;15.77;;;9.52;;
2996;SDS011;1508;48.744;9.110;2022-10-18T19:54:31;15.38;;;9.90;;
2996;SDS011;1508;48.744;9.110;2022-10-18T19:57:17;33.13;;;10.88;;
2996;SDS011;1508;48.744;9.110;2022-10-18T20:00:03;13.90;;;9.98;;
2996;SDS011;1508;48.744;9.110;2022-10-18T20:02:50;13.77;;;9.15;;
2996;SDS011;1508;48.744;9.110;2022-10-18T20:05:35;24.88;;;9.38;;
2996;SDS011;1508;48.744;9.110;2022-10-18T20:08:21;17.55;;;10.40;;
2996;SDS011;1508;48.744;9.110;2022-10-18T20:11:09;46.05;;;12.63;;